createdAt,value
2022-09-28T00:00:21.736Z,6.30
2022-09-28T00:05:28.607Z,6.60
2022-09-28T00:10:36.411Z,6.50
2022-09-28T00:15:43.406Z,6.60
2022-09-28T00:20:50.440Z,6.30
2022-09-28T00:25:58.370Z,6.40
2022-09-28T00:31:05.699Z,6.50
2022-09-28T00:36:12.579Z,6.40
2022-09-28T00:41:20.191Z,6.60
2022-09-28T00:46:37.446Z,6.50
2022-09-28T00:51:46.892Z,6.60
2022-09-28T00:56:56.210Z,6.50
2022-09-28T01:02:05.738Z,6.40
2022-09-28T01:07:15.081Z,6.40
2022-09-28T01:12:21.831Z,6.60
2022-09-28T01:17:42.381Z,6.70
2022-09-28T01:23:36.686Z,6.50
2022-09-28T01:28:46.496Z,6.30
2022-09-28T01:34:24.490Z,6.30
2022-09-28T01:39:44.619Z,6.40
2022-09-28T01:44:54.317Z,6.40
2022-09-28T01:50:14.515Z,6.50
2022-09-28T01:55:28.400Z,6.40
2022-09-28T02:00:39.196Z,6.40
2022-09-28T02:05:56.066Z,6.60
2022-09-28T02:11:21.591Z,6.40
2022-09-28T02:16:46.340Z,6.40
2022-09-28T02:22:20.115Z,6.20
2022-09-28T02:27:53.689Z,6.20
2022-09-28T02:33:20.013Z,6.20
2022-09-28T02:38:26.880Z,6.20
2022-09-28T02:43:46.689Z,6.20
2022-09-28T02:49:26.572Z,6.20
2022-09-28T02:54:52.931Z,6.10
2022-09-28T03:00:46.578Z,6.20
2022-09-28T03:06:03.730Z,6.10
2022-09-28T03:11:23.550Z,6.10
2022-09-28T03:16:31.857Z,6.00
2022-09-28T03:21:38.735Z,6.10
2022-09-28T03:26:45.452Z,6.10
2022-09-28T03:31:52.726Z,6.30
2022-09-28T03:36:59.452Z,6.20
2022-09-28T03:53:05.669Z,6.30
2022-09-28T03:58:12.746Z,6.30
2022-09-28T04:03:20.039Z,6.40
2022-09-28T04:08:27.531Z,6.60
2022-09-28T04:13:34.678Z,6.30
2022-09-28T04:18:41.315Z,6.20
2022-09-28T04:23:51.102Z,6.20
2022-09-28T04:29:19.946Z,6.10
2022-09-28T04:34:34.529Z,6.10
2022-09-28T04:39:39.136Z,5.90
2022-09-28T04:44:46.025Z,6.20
2022-09-28T04:49:53.290Z,6.20
2022-09-28T04:55:01.905Z,6.10
2022-09-28T05:00:14.093Z,6.00
2022-09-28T05:05:21.377Z,6.00
2022-09-28T05:10:28.045Z,5.80
2022-09-28T05:15:36.790Z,5.90
2022-09-28T05:20:44.340Z,6.00
2022-09-28T05:25:51.641Z,5.90
2022-09-28T05:31:03.939Z,6.00
2022-09-28T05:36:12.669Z,6.00
2022-09-28T05:41:19.321Z,6.20
2022-09-28T05:46:25.988Z,6.40
2022-09-28T05:51:32.707Z,6.50
2022-09-28T05:56:39.403Z,6.50
2022-09-28T06:01:46.118Z,6.70
2022-09-28T06:06:52.806Z,6.70
2022-09-28T06:12:01.630Z,6.80
2022-09-28T06:17:09.131Z,6.90
2022-09-28T06:22:15.857Z,6.80
2022-09-28T06:27:22.535Z,6.60
2022-09-28T06:32:30.117Z,6.70
2022-09-28T06:37:36.797Z,6.90
2022-09-28T06:42:43.493Z,6.90
2022-09-28T06:47:59.732Z,6.90
2022-09-28T06:53:09.695Z,7.10
2022-09-28T06:58:20.407Z,7.30
2022-09-28T07:03:27.402Z,7.40
2022-09-28T07:08:34.054Z,7.60
2022-09-28T07:13:56.493Z,7.80
2022-09-28T07:18:49.353Z,7.90
2022-09-28T07:23:56.019Z,7.90
2022-09-28T07:29:02.678Z,7.90
2022-09-28T07:34:09.333Z,7.90
2022-09-28T07:39:16.034Z,7.90
2022-09-28T07:44:24.092Z,8.00
2022-09-28T07:49:31.516Z,8.10
2022-09-28T07:54:39.837Z,8.20
2022-09-28T07:59:46.522Z,8.40
2022-09-28T08:04:54.676Z,8.70
2022-09-28T08:10:01.375Z,8.80
2022-09-28T08:15:11.635Z,9.00
2022-09-28T08:20:36.754Z,9.10
2022-09-28T08:25:53.396Z,9.10
2022-09-28T08:31:03.447Z,9.40
2022-09-28T08:36:11.473Z,9.40
2022-09-28T08:41:43.464Z,9.60
2022-09-28T08:46:54.711Z,9.70
2022-09-28T08:52:22.016Z,9.80
2022-09-28T08:57:48.057Z,9.60
2022-09-28T09:02:54.826Z,9.80
2022-09-28T09:08:31.572Z,10.00
2022-09-28T09:14:11.134Z,10.10
2022-09-28T09:19:38.591Z,10.20
2022-09-28T09:24:55.062Z,10.40
2022-09-28T09:30:20.311Z,10.50
2022-09-28T09:35:53.198Z,10.70
2022-09-28T09:41:28.666Z,10.90
2022-09-28T09:46:45.520Z,11.00
2022-09-28T09:51:59.128Z,11.00
2022-09-28T09:57:12.937Z,11.00
2022-09-28T10:02:29.689Z,11.00
2022-09-28T10:07:46.502Z,11.00
2022-09-28T10:12:54.232Z,11.20
2022-09-28T10:18:06.986Z,11.50
2022-09-28T10:23:22.717Z,11.40
2022-09-28T10:28:42.353Z,11.50
2022-09-28T10:33:49.836Z,11.60
2022-09-28T10:38:57.107Z,11.90
2022-09-28T10:44:10.708Z,12.10
2022-09-28T10:49:21.423Z,12.80
2022-09-28T10:54:33.781Z,13.20
2022-09-28T10:59:43.353Z,13.10
2022-09-28T11:04:57.331Z,13.40
2022-09-28T11:10:06.417Z,13.70
2022-09-28T11:15:25.332Z,13.80
2022-09-28T11:20:37.029Z,13.20
2022-09-28T11:25:44.853Z,13.40
2022-09-28T11:30:54.368Z,13.40
2022-09-28T11:36:14.965Z,13.10
2022-09-28T11:42:05.462Z,13.60
2022-09-28T11:47:25.299Z,13.70
2022-09-28T11:52:36.607Z,13.00
2022-09-28T11:57:46.836Z,13.30
2022-09-28T12:03:03.919Z,13.60
2022-09-28T12:08:40.082Z,13.90
2022-09-28T12:13:53.480Z,13.80
2022-09-28T12:19:07.336Z,13.60
2022-09-28T12:24:27.894Z,13.70
2022-09-28T12:30:02.846Z,13.40
2022-09-28T12:35:23.130Z,13.80
2022-09-28T12:40:52.672Z,14.30
2022-09-28T12:46:22.224Z,13.90
2022-09-28T12:51:36.182Z,13.40
2022-09-28T12:57:04.397Z,13.10
2022-09-28T13:02:34.912Z,12.80
2022-09-28T13:08:14.288Z,12.80
2022-09-28T13:14:02.757Z,12.80
2022-09-28T13:19:34.122Z,13.00
2022-09-28T13:24:44.983Z,12.70
2022-09-28T13:29:55.735Z,12.50
2022-09-28T13:35:03.672Z,12.30
2022-09-28T13:40:12.206Z,12.40
2022-09-28T13:45:30.672Z,12.40
2022-09-28T13:51:21.357Z,12.40
2022-09-28T13:56:49.566Z,12.50
2022-09-28T14:02:27.563Z,12.20
2022-09-28T14:07:42.150Z,11.80
2022-09-28T14:12:53.805Z,11.90
2022-09-28T14:18:26.592Z,11.80
2022-09-28T14:23:59.095Z,11.90
2022-09-28T14:29:33.650Z,12.00
2022-09-28T14:34:51.861Z,11.80
2022-09-28T14:40:16.792Z,11.70
2022-09-28T14:45:38.846Z,11.70
2022-09-28T14:50:47.152Z,11.90
2022-09-28T14:55:59.952Z,12.10
2022-09-28T15:01:11.154Z,12.00
2022-09-28T15:06:20.655Z,11.90
2022-09-28T15:11:28.825Z,11.90
2022-09-28T15:16:36.827Z,11.90
2022-09-28T15:21:48.891Z,11.80
2022-09-28T15:26:57.147Z,12.00
2022-09-28T15:32:05.220Z,12.00
2022-09-28T15:37:13.007Z,11.90
2022-09-28T15:42:24.708Z,12.00
2022-09-28T15:47:33.892Z,12.00
2022-09-28T15:52:47.679Z,12.00
2022-09-28T15:58:17.222Z,11.80
2022-09-28T16:03:31.506Z,11.80
2022-09-28T16:08:45.125Z,11.80
2022-09-28T16:14:13.737Z,12.00
2022-09-28T16:19:35.406Z,11.80
2022-09-28T16:24:44.220Z,11.90
2022-09-28T16:30:25.260Z,11.80
2022-09-28T16:35:46.070Z,11.90
2022-09-28T16:40:55.109Z,11.90
2022-09-28T16:46:11.266Z,11.80
2022-09-28T16:51:21.714Z,11.80
2022-09-28T16:56:30.627Z,11.60
2022-09-28T17:01:39.014Z,11.70
2022-09-28T17:06:45.959Z,11.60
2022-09-28T17:11:54.408Z,11.60
2022-09-28T17:17:08.929Z,11.60
2022-09-28T17:22:14.661Z,11.50
2022-09-28T17:27:23.084Z,11.50
2022-09-28T17:32:30.620Z,11.40
2022-09-28T17:37:37.904Z,11.50
2022-09-28T17:42:45.345Z,11.40
2022-09-28T17:47:54.977Z,11.50
2022-09-28T17:53:04.038Z,11.40
2022-09-28T17:58:23.734Z,11.50
2022-09-28T18:03:30.511Z,11.40
2022-09-28T18:08:39.087Z,11.40
2022-09-28T18:13:46.465Z,11.50
2022-09-28T18:18:53.290Z,11.50
2022-09-28T18:24:00.077Z,11.50
2022-09-28T18:29:07.559Z,11.50
2022-09-28T18:34:14.455Z,11.60
2022-09-28T18:39:21.289Z,11.60
2022-09-28T18:44:27.971Z,11.40
2022-09-28T18:49:35.540Z,11.50
2022-09-28T18:54:42.304Z,11.40
2022-09-28T18:59:52.612Z,11.50
2022-09-28T19:04:59.251Z,11.40
2022-09-28T19:10:08.124Z,11.50
2022-09-28T19:15:16.149Z,11.50
2022-09-28T19:20:22.974Z,11.60
2022-09-28T19:25:30.290Z,11.60
2022-09-28T19:30:37.822Z,11.50
2022-09-28T19:35:45.222Z,11.50
2022-09-28T19:40:51.928Z,11.40
2022-09-28T19:46:02.080Z,11.40
2022-09-28T19:51:10.486Z,11.40
2022-09-28T19:56:18.222Z,11.40
2022-09-28T20:01:25.092Z,11.30
2022-09-28T20:06:33.607Z,11.50
2022-09-28T20:11:40.884Z,11.40
2022-09-28T20:16:48.966Z,11.40
2022-09-28T20:21:58.406Z,11.40
2022-09-28T20:27:06.037Z,11.40
2022-09-28T20:32:15.177Z,11.50
2022-09-28T20:37:23.639Z,11.50
2022-09-28T20:42:32.260Z,11.50
2022-09-28T20:47:42.079Z,11.50
2022-09-28T20:52:48.776Z,11.40
2022-09-28T20:57:56.456Z,11.40
2022-09-28T21:03:03.717Z,11.20
2022-09-28T21:08:11.557Z,11.30
2022-09-28T21:13:20.017Z,11.40
2022-09-28T21:18:27.287Z,11.30
2022-09-28T21:23:34.577Z,11.20
2022-09-28T21:28:44.483Z,11.40
2022-09-28T21:33:52.321Z,11.30
2022-09-28T21:38:59.242Z,11.40
2022-09-28T21:44:06.666Z,11.40
2022-09-28T21:49:14.762Z,11.40
2022-09-28T21:54:22.678Z,11.40
2022-09-28T21:59:30.680Z,11.50
2022-09-28T22:04:37.441Z,11.60
2022-09-28T22:09:45.097Z,11.60
2022-09-28T22:14:53.381Z,11.50
2022-09-28T22:20:00.147Z,11.50
2022-09-28T22:25:07.580Z,11.50
2022-09-28T22:30:16.251Z,11.50
2022-09-28T22:35:22.997Z,11.40
2022-09-28T22:40:30.630Z,11.40
2022-09-28T22:45:37.459Z,11.40
2022-09-28T22:50:52.817Z,11.60
2022-09-28T22:56:04.254Z,11.50
2022-09-28T23:01:19.358Z,11.50
2022-09-28T23:06:31.451Z,11.40
2022-09-28T23:11:38.297Z,11.40
2022-09-28T23:16:45.707Z,11.40
2022-09-28T23:21:54.267Z,11.50
2022-09-28T23:27:01.026Z,11.50
2022-09-28T23:32:08.374Z,11.30
2022-09-28T23:37:15.952Z,11.30
2022-09-28T23:42:23.308Z,11.20
2022-09-28T23:47:30.303Z,11.30
2022-09-28T23:52:37.476Z,11.20
2022-09-28T23:57:47.902Z,11.30
